Time;durP1;ratioP1;P1;durP2;ratioP2;P2;SDS_P1;SDS_P2;PMS_P1;PMS_P2;Temp;Humidity;BMP_temperature;BMP_pressure;BME280_temperature;BME280_humidity;BME280_pressure;Samples;Min_cycle;Max_cycle;Signal;HPM_P1;HPM_P2
2022/08/13 00:10:00;;;;;;;2.22;0.52;;;;;;;23.57;34.01;100210.03;10229995;28;20050;-58
2022/08/13 00:15:16;;;;;;;1.73;0.60;;;;;;;23.52;34.04;100207.97;10232472;28;20071;-57
2022/08/13 00:20:21;;;;;;;1.20;0.60;;;;;;;23.41;34.22;100212.16;10231536;28;20043;-56
2022/08/13 00:25:26;;;;;;;3.08;0.73;;;;;;;23.40;34.44;100205.03;10231406;28;20061;-58
2022/08/13 00:30:44;;;;;;;2.50;0.80;;;;;;;23.34;34.35;100199.63;10232742;28;20133;-58
2022/08/13 00:35:51;;;;;;;1.88;0.70;;;;;;;23.28;34.55;100215.72;10213634;28;20039;-57
2022/08/13 00:40:57;;;;;;;1.23;0.50;;;;;;;23.26;34.62;100209.63;10220175;28;20618;-56
2022/08/13 00:46:00;;;;;;;2.78;0.77;;;;;;;23.20;34.87;100209.66;10238710;28;20046;-57
2022/08/13 00:51:06;;;;;;;1.90;0.88;;;;;;;23.14;34.97;100211.31;10241311;28;20175;-54
2022/08/13 00:56:11;;;;;;;2.08;1.10;;;;;;;23.09;35.00;100202.94;10238889;28;20674;-59
2022/08/13 01:01:12;;;;;;;1.63;0.68;;;;;;;23.04;35.27;100200.81;10236386;28;20535;-56
2022/08/13 01:06:18;;;;;;;1.33;0.90;;;;;;;22.99;35.28;100197.88;10237352;28;20133;-56
2022/08/13 01:11:22;;;;;;;1.52;0.70;;;;;;;22.95;35.55;100192.03;10237737;28;20161;-53
2022/08/13 01:16:27;;;;;;;1.58;0.82;;;;;;;22.93;35.65;100194.13;10236203;28;20054;-55
2022/08/13 01:21:39;;;;;;;1.02;0.60;;;;;;;22.90;35.77;100202.66;10234398;28;20146;-54
2022/08/13 01:26:42;;;;;;;1.33;0.57;;;;;;;22.92;35.66;100197.88;10230929;28;20047;-57
2022/08/13 01:31:51;;;;;;;1.17;0.60;;;;;;;22.91;36.07;100196.22;10235299;28;20137;-55
2022/08/13 01:36:53;;;;;;;1.38;0.77;;;;;;;22.90;35.99;100194.53;10236545;28;20136;-57
2022/08/13 01:41:58;;;;;;;2.85;0.60;;;;;;;22.90;35.85;100199.94;10236201;28;20074;-56
2022/08/13 01:52:45;;;;;;;2.40;0.70;;;;;;;22.81;36.26;100212.03;10233808;28;20497;-57
2022/08/13 01:57:47;;;;;;;1.80;0.70;;;;;;;22.76;36.50;100206.41;10233466;28;20039;-55
2022/08/13 02:02:53;;;;;;;2.95;0.80;;;;;;;22.74;36.20;100206.63;10234351;28;20108;-57
2022/08/13 02:07:57;;;;;;;3.17;0.70;;;;;;;22.64;36.48;100197.16;10238693;28;20055;-56
2022/08/13 02:13:11;;;;;;;1.38;0.85;;;;;;;22.60;36.57;100194.88;10236391;28;20051;-55
2022/08/13 02:18:23;;;;;;;1.75;0.73;;;;;;;22.54;37.01;100184.84;10237293;28;20547;-56
2022/08/13 02:23:31;;;;;;;2.58;0.88;;;;;;;22.54;36.78;100192.97;10233559;28;20721;-56
2022/08/13 02:28:55;;;;;;;0.90;0.70;;;;;;;22.44;37.13;100194.41;10232293;28;20054;-57
2022/08/13 02:33:57;;;;;;;1.40;0.77;;;;;;;22.39;37.27;100186.88;10226641;28;20111;-57
2022/08/13 02:39:04;;;;;;;5.53;0.98;;;;;;;22.36;37.46;100185.41;10229152;28;20994;-55
2022/08/13 02:44:06;;;;;;;3.08;1.15;;;;;;;22.31;37.72;100187.91;10228859;28;20747;-57
2022/08/13 02:49:17;;;;;;;1.20;0.88;;;;;;;22.23;37.65;100194.31;10226791;28;20149;-55
2022/08/13 02:54:20;;;;;;;1.83;0.60;;;;;;;22.19;37.94;100193.03;10228518;28;20062;-57
2022/08/13 02:59:24;;;;;;;1.52;0.95;;;;;;;22.13;37.75;100192.97;10230043;28;20643;-56
2022/08/13 03:04:45;;;;;;;2.35;0.75;;;;;;;21.98;38.36;100190.41;10231333;28;20141;-54
2022/08/13 03:09:47;;;;;;;2.05;1.20;;;;;;;21.97;38.55;100192.28;10232753;28;20062;-56
2022/08/13 03:14:53;;;;;;;1.63;1.08;;;;;;;22.05;38.34;100186.72;10229873;28;20054;-56
2022/08/13 03:19:54;;;;;;;4.32;1.15;;;;;;;22.05;38.45;100185.84;10230246;28;20114;-55
2022/08/13 03:24:59;;;;;;;1.83;0.93;;;;;;;22.13;38.48;100183.00;10293450;23;20157;-55
2022/08/13 03:30:00;;;;;;;2.10;1.60;;;;;;;22.07;39.30;100189.22;10365328;28;20069;-54
2022/08/13 03:35:20;;;;;;;0.90;0.88;;;;;;;22.12;38.87;100180.47;10373184;28;20057;-54
2022/08/13 03:41:00;;;;;;;4.07;0.93;;;;;;;22.02;38.81;100187.13;10370518;28;20057;-54
2022/08/13 03:46:01;;;;;;;2.25;0.98;;;;;;;21.92;38.74;100191.19;10370781;28;20662;-54
2022/08/13 03:51:06;;;;;;;1.85;0.80;;;;;;;21.78;39.26;100191.09;10375430;28;20061;-55
2022/08/13 03:56:11;;;;;;;1.70;1.15;;;;;;;21.69;39.41;100178.75;10372155;28;20394;-61
2022/08/13 04:01:15;;;;;;;4.00;1.00;;;;;;;21.62;39.45;100180.59;10373549;28;20925;-54
2022/08/13 04:06:22;;;;;;;2.63;1.02;;;;;;;21.63;39.51;100179.56;10350546;28;20049;-54
2022/08/13 04:11:28;;;;;;;1.48;1.02;;;;;;;21.67;39.70;100180.84;10376503;28;20407;-54
2022/08/13 04:16:31;;;;;;;2.22;1.00;;;;;;;21.71;41.57;100180.25;10376799;28;20048;-52
2022/08/13 04:21:35;;;;;;;2.78;1.35;;;;;;;21.72;40.33;100181.06;10378454;28;20049;-53
2022/08/13 04:26:43;;;;;;;1.67;0.77;;;;;;;21.65;41.01;100186.47;10382179;28;20045;-54
2022/08/13 04:31:48;;;;;;;1.95;1.08;;;;;;;21.63;41.22;100179.56;10383450;28;21118;-55
2022/08/13 04:36:52;;;;;;;1.13;1.00;;;;;;;21.64;41.16;100181.25;10383383;28;20056;-54
2022/08/13 04:41:53;;;;;;;3.15;0.88;;;;;;;21.56;40.80;100194.91;10381470;28;20115;-53
2022/08/13 04:46:55;;;;;;;2.42;0.85;;;;;;;21.49;40.79;100197.56;10379203;28;20075;-58
2022/08/13 04:51:57;;;;;;;1.23;1.02;;;;;;;21.56;42.32;100208.47;10384515;28;20057;-55
2022/08/13 04:56:58;;;;;;;2.95;1.13;;;;;;;21.56;42.67;100212.03;10379151;28;20128;-60
2022/08/13 05:02:00;;;;;;;2.08;1.00;;;;;;;21.57;41.72;100204.72;10378977;28;20111;-59
2022/08/13 05:07:02;;;;;;;4.03;1.33;;;;;;;21.51;42.16;100211.75;10355126;28;20473;-60
2022/08/13 05:12:05;;;;;;;1.55;1.30;;;;;;;21.49;41.18;100209.22;10356280;28;20405;-59
2022/08/13 05:17:07;;;;;;;1.55;0.82;;;;;;;21.52;41.34;100208.84;10358088;28;20048;-59
2022/08/13 05:22:14;;;;;;;2.05;0.90;;;;;;;21.52;42.59;100216.97;10345824;28;20044;-59
2022/08/13 05:27:31;;;;;;;0.82;0.82;;;;;;;21.57;42.49;100216.38;10365220;28;20060;-61
2022/08/13 05:32:41;;;;;;;2.05;1.25;;;;;;;21.58;42.20;100220.78;10359765;28;20659;-60
2022/08/13 05:37:50;;;;;;;2.00;1.60;;;;;;;21.65;41.56;100223.56;10361922;28;20091;-65
2022/08/13 05:43:15;;;;;;;1.48;1.05;;;;;;;21.63;42.58;100231.88;10349455;28;20514;-59
2022/08/13 05:48:17;;;;;;;2.28;1.05;;;;;;;21.71;43.01;100233.59;10356185;28;20192;-60
2022/08/13 05:53:21;;;;;;;2.00;1.05;;;;;;;21.78;42.75;100245.28;10357791;28;20467;-58
2022/08/13 05:58:24;;;;;;;1.25;1.15;;;;;;;21.93;41.68;100242.47;10362968;28;20068;-59
2022/08/13 06:03:29;;;;;;;2.20;1.55;;;;;;;21.94;43.12;100233.31;10358207;28;20689;-59
2022/08/13 06:08:56;;;;;;;1.65;1.10;;;;;;;22.14;42.53;100227.19;10363146;28;20053;-59
2022/08/13 06:14:00;;;;;;;2.33;1.13;;;;;;;22.27;42.33;100227.25;10365736;28;20052;-59
2022/08/13 06:19:08;;;;;;;2.17;1.27;;;;;;;22.42;42.52;100235.28;10359503;28;20065;-62
2022/08/13 06:24:12;;;;;;;1.42;1.15;;;;;;;22.50;40.93;100226.13;10365254;28;20613;-59
2022/08/13 06:29:15;;;;;;;2.25;1.00;;;;;;;22.63;41.13;100230.78;10348575;28;20092;-59
2022/08/13 06:34:18;;;;;;;3.25;1.10;;;;;;;22.66;40.45;100219.53;10360138;28;20104;-61
2022/08/13 06:39:38;;;;;;;2.65;1.17;;;;;;;22.90;40.09;100209.97;10356873;28;20041;-60
2022/08/13 06:44:42;;;;;;;1.57;1.20;;;;;;;23.08;39.33;100220.25;10361204;28;20056;-61
2022/08/13 06:49:43;;;;;;;3.05;1.33;;;;;;;23.20;41.35;100226.75;10354696;28;20414;-59
2022/08/13 06:55:01;;;;;;;4.90;1.48;;;;;;;23.39;39.49;100224.25;10357756;28;20060;-60
2022/08/13 07:00:25;;;;;;;2.25;1.02;;;;;;;23.57;39.08;100232.63;10361979;28;20143;-60
2022/08/13 07:05:42;;;;;;;1.73;1.35;;;;;;;23.69;38.59;100224.69;10348227;28;20171;-61
2022/08/13 07:11:21;;;;;;;2.60;1.10;;;;;;;23.82;38.42;100223.81;10354762;28;20624;-61
2022/08/13 07:16:09;;;;;;;3.28;1.52;;;;;;;24.15;37.89;100222.94;10351508;28;20178;-61
2022/08/13 07:21:12;;;;;;;3.28;1.60;;;;;;;24.22;39.29;100226.47;10338354;28;20102;-71
2022/08/13 07:26:16;;;;;;;1.43;1.23;;;;;;;24.42;37.96;100222.84;10360433;28;20106;-72
2022/08/13 07:31:23;;;;;;;3.88;1.35;;;;;;;24.65;37.43;100217.75;10343781;28;20357;-68
2022/08/13 07:36:33;;;;;;;2.75;1.70;;;;;;;24.98;36.62;100226.75;10349647;28;20049;-71
2022/08/13 07:41:46;;;;;;;2.30;1.33;;;;;;;25.18;36.49;100222.03;10360321;28;20497;-71
2022/08/13 07:47:10;;;;;;;2.45;1.15;;;;;;;25.36;35.55;100224.03;10374545;28;20057;-71
2022/08/13 07:52:17;;;;;;;;;;;;;;;25.68;35.30;100225.84;10341966;28;20051;-71
2022/08/13 07:57:19;;;;;;;3.28;1.10;;;;;;;25.98;35.34;100217.78;10369906;28;21021;-70
2022/08/13 08:02:39;;;;;;;3.10;0.90;;;;;;;26.44;34.20;100208.25;10373290;28;20126;-68
2022/08/13 08:07:42;;;;;;;2.38;0.98;;;;;;;26.69;33.76;100209.22;10369894;28;21387;-70
2022/08/13 08:13:04;;;;;;;1.02;0.77;;;;;;;26.94;33.04;100211.81;10369855;28;20061;-72
2022/08/13 08:18:07;;;;;;;1.85;0.80;;;;;;;27.15;32.28;100203.06;10365484;28;20057;-70
2022/08/13 08:23:28;;;;;;;1.58;0.98;;;;;;;27.25;31.92;100212.56;10368838;28;20053;-69
2022/08/13 08:28:50;;;;;;;1.92;1.05;;;;;;;27.52;31.93;100213.84;10371474;28;20053;-70
2022/08/13 08:33:55;;;;;;;4.03;1.00;;;;;;;27.85;31.61;100215.16;10370267;28;20080;-69
2022/08/13 08:44:23;;;;;;;1.75;1.00;;;;;;;28.13;30.38;100202.63;10375128;28;20049;-70
2022/08/13 08:49:26;;;;;;;2.70;0.85;;;;;;;28.34;31.23;100197.59;10368343;28;20121;-71
2022/08/13 08:54:45;;;;;;;1.80;0.60;;;;;;;28.67;30.34;100196.09;10356088;28;20573;-73
2022/08/13 08:59:48;;;;;;;3.15;1.27;;;;;;;28.70;28.79;100192.84;10373184;28;20048;-73
2022/08/13 09:04:57;;;;;;;3.05;1.10;;;;;;;29.13;29.83;100190.59;10378777;28;20049;-71
2022/08/13 09:10:01;;;;;;;1.33;1.00;;;;;;;28.94;28.95;100182.59;10372803;28;20259;-74
2022/08/13 09:15:06;;;;;;;2.25;0.90;;;;;;;29.27;29.86;100176.38;10374297;28;20743;-71
2022/08/13 09:20:18;;;;;;;1.88;0.82;;;;;;;29.71;28.94;100178.38;10361876;28;20079;-73
2022/08/13 09:25:26;;;;;;;2.67;1.02;;;;;;;30.05;27.93;100180.22;10377723;28;21065;-75
2022/08/13 09:30:28;;;;;;;2.17;1.20;;;;;;;30.37;28.11;100166.63;10370352;28;20049;-74
2022/08/13 09:35:33;;;;;;;2.13;1.45;;;;;;;30.85;27.30;100166.84;10368049;28;20051;-73
2022/08/13 09:40:44;;;;;;;2.88;1.80;;;;;;;31.23;26.73;100173.28;10373374;28;20513;-74
2022/08/13 09:46:01;;;;;;;4.43;1.30;;;;;;;31.43;26.60;100174.50;10352553;28;20064;-73
2022/08/13 09:51:13;;;;;;;1.63;1.05;;;;;;;31.36;25.81;100161.81;10366624;28;20509;-75
2022/08/13 09:56:37;;;;;;;3.00;1.70;;;;;;;31.92;25.67;100148.66;10364906;28;20462;-73
2022/08/13 10:01:41;;;;;;;4.38;1.50;;;;;;;32.34;25.80;100134.81;10371937;28;20504;-73
2022/08/13 10:06:58;;;;;;;4.25;2.72;;;;;;;32.80;24.01;100158.88;10373688;28;20073;-72
2022/08/13 10:12:06;;;;;;;6.40;5.80;;;;;;;32.56;23.89;100142.03;10359005;28;20064;-74
2022/08/13 10:17:21;;;;;;;4.50;4.03;;;;;;;32.66;23.74;100133.81;10354346;28;20048;-75
2022/08/13 10:22:23;;;;;;;0.98;0.75;;;;;;;32.81;23.18;100118.41;10371694;28;20609;-74
2022/08/13 10:27:25;;;;;;;5.18;4.72;;;;;;;33.13;23.15;100124.44;10365132;28;20065;-72
2022/08/13 10:32:46;;;;;;;1.77;0.80;;;;;;;36.50;19.14;100103.09;10363343;28;20536;-71
2022/08/13 10:37:54;;;;;;;1.42;0.80;;;;;;;39.60;16.99;100103.66;10364736;28;20054;-72
2022/08/13 10:43:00;;;;;;;0.90;0.75;;;;;;;36.95;17.99;100095.16;10346290;28;21933;-75
2022/08/13 10:48:11;;;;;;;4.70;2.38;;;;;;;35.45;19.53;100094.75;10352271;28;20355;-72
2022/08/13 10:53:55;;;;;;;1.27;1.00;;;;;;;35.70;20.30;100086.13;10364070;28;20745;-73
2022/08/13 10:58:43;;;;;;;0.80;0.57;;;;;;;36.33;18.95;100075.09;10370141;28;20057;-76
2022/08/13 11:03:58;;;;;;;2.80;0.80;;;;;;;37.22;18.45;100071.38;10369050;28;20056;-70
2022/08/13 11:09:05;;;;;;;0.90;0.65;;;;;;;38.26;17.78;100073.69;10270210;28;20076;-72
2022/08/13 11:14:28;;;;;;;1.08;0.60;;;;;;;38.58;16.89;100066.22;10345403;28;20130;-73
2022/08/13 11:19:44;;;;;;;3.35;0.90;;;;;;;39.04;17.13;100053.13;10345757;28;20052;-71
2022/08/13 11:24:59;;;;;;;0.95;0.38;;;;;;;40.31;14.29;100060.84;10352726;28;20243;-73
2022/08/13 11:30:12;;;;;;;0.57;0.38;;;;;;;41.23;13.71;100045.75;10350488;28;20068;-73
2022/08/13 11:35:13;;;;;;;1.05;0.70;;;;;;;38.49;14.97;100054.25;10351017;28;20139;-73
2022/08/13 11:40:15;;;;;;;0.85;0.30;;;;;;;37.87;16.08;100050.09;10355836;28;20061;-74
2022/08/13 11:45:33;;;;;;;0.80;0.43;;;;;;;36.91;16.77;100044.19;10353552;28;20052;-74
2022/08/13 11:50:46;;;;;;;1.60;1.50;;;;;;;36.91;17.67;100032.28;10339762;28;20161;-72
2022/08/13 11:55:48;;;;;;;0.90;0.65;;;;;;;37.29;17.73;100041.28;10342948;28;20057;-74
2022/08/13 12:01:06;;;;;;;1.42;0.55;;;;;;;37.13;17.76;100039.94;10340448;28;20157;-74
2022/08/13 12:06:12;;;;;;;1.15;0.60;;;;;;;36.79;17.97;100041.09;10354360;28;20930;-74
2022/08/13 12:11:14;;;;;;;2.45;1.80;;;;;;;36.33;18.59;100030.75;10361099;28;20473;-74
2022/08/13 12:16:19;;;;;;;1.92;0.73;;;;;;;36.60;17.17;100022.53;10347932;28;20053;-72
2022/08/13 12:21:20;;;;;;;2.50;1.98;;;;;;;36.70;17.46;100027.06;10312702;28;20053;-76
2022/08/13 12:26:22;;;;;;;1.00;0.90;;;;;;;36.77;17.80;100019.22;10358450;28;20080;-74
2022/08/13 12:31:25;;;;;;;2.35;0.90;;;;;;;36.42;18.12;100015.06;10340534;28;20103;-74
2022/08/13 12:36:33;;;;;;;2.25;0.65;;;;;;;36.29;17.41;100005.59;10352006;23;20433;-69
2022/08/13 12:41:35;;;;;;;17.35;15.73;;;;;;;36.26;18.24;99993.13;10371014;23;20045;-72
2022/08/13 12:46:48;;;;;;;2.47;0.90;;;;;;;36.18;16.95;99991.06;10390622;28;20059;-76
2022/08/13 12:51:51;;;;;;;2.78;1.60;;;;;;;36.28;17.90;99996.44;10393087;28;20063;-76
2022/08/13 12:56:56;;;;;;;2.97;1.00;;;;;;;36.27;17.98;99980.97;10399119;28;20049;-77
2022/08/13 13:01:59;;;;;;;2.28;0.70;;;;;;;35.76;18.55;99970.59;10402552;28;20063;-77
2022/08/13 13:07:02;;;;;;;1.63;0.60;;;;;;;35.84;18.59;99974.72;10379294;28;20058;-76
2022/08/13 13:12:08;;;;;;;2.47;1.25;;;;;;;34.96;18.99;99970.22;10371102;28;20052;-77
2022/08/13 13:17:09;;;;;;;1.05;0.90;;;;;;;35.02;18.65;99965.47;10397278;28;20078;-79
2022/08/13 13:22:31;;;;;;;1.40;0.80;;;;;;;34.83;18.51;99957.09;10396166;28;20528;-80
2022/08/13 13:27:38;;;;;;;1.75;1.10;;;;;;;34.77;19.13;99950.81;10393353;28;20118;-79
2022/08/13 13:32:46;;;;;;;1.85;0.75;;;;;;;34.54;19.62;99952.38;10394903;28;20542;-77
2022/08/13 13:37:52;;;;;;;0.95;0.75;;;;;;;34.44;19.93;99941.41;10401504;28;20691;-80
2022/08/13 13:43:08;;;;;;;1.67;0.63;;;;;;;34.11;19.44;99928.16;10391983;28;20049;-81
2022/08/13 13:48:32;;;;;;;1.95;1.08;;;;;;;34.05;20.25;99934.00;10411613;28;20123;-78
2022/08/13 13:53:37;;;;;;;1.37;1.10;;;;;;;34.16;19.94;99930.88;10379889;28;20056;-76
2022/08/13 13:58:58;;;;;;;1.42;1.13;;;;;;;34.07;20.57;99937.31;10401361;28;20299;-78
2022/08/13 14:04:00;;;;;;;1.15;0.80;;;;;;;33.95;20.22;99926.63;10402969;28;20057;-80
2022/08/13 14:09:04;;;;;;;3.40;1.25;;;;;;;33.75;20.32;99919.31;10375111;28;20063;-79
2022/08/13 14:14:07;;;;;;;2.92;2.67;;;;;;;33.54;20.12;99911.16;10376992;28;20072;-83
2022/08/13 14:19:11;;;;;;;1.83;1.35;;;;;;;33.38;19.89;99915.91;10394440;28;20100;-80
2022/08/13 14:24:33;;;;;;;;;;;;;;;32.95;20.20;99901.72;10375130;28;20044;-80
2022/08/13 14:29:35;;;;;;;2.35;0.90;;;;;;;32.88;20.07;99909.47;10371976;28;20775;-80
2022/08/13 14:34:41;;;;;;;1.30;1.20;;;;;;;32.83;20.43;99909.50;10388588;28;20127;-77
2022/08/13 14:39:55;;;;;;;2.25;1.65;;;;;;;32.71;20.64;99896.88;10386239;28;20377;-81
2022/08/13 14:50:21;;;;;;;3.75;1.48;;;;;;;32.23;21.15;99874.31;10385987;28;20055;-77
2022/08/13 14:55:25;;;;;;;0.70;0.70;;;;;;;32.13;21.44;99874.31;10391185;28;20107;-77
2022/08/13 15:00:30;;;;;;;2.10;0.82;;;;;;;32.10;21.75;99866.59;10384024;28;20055;-76
2022/08/13 15:05:35;;;;;;;1.27;1.05;;;;;;;32.01;21.21;99867.16;10367133;28;20074;-76
2022/08/13 15:10:53;;;;;;;1.65;0.77;;;;;;;31.91;20.72;99867.16;10383934;28;20060;-77
2022/08/13 15:16:07;;;;;;;2.15;1.00;;;;;;;31.52;21.12;99859.38;10362409;28;20052;-77
2022/08/13 15:21:30;;;;;;;3.35;1.50;;;;;;;31.52;21.52;99860.19;10396230;28;21101;-77
2022/08/13 15:26:51;;;;;;;2.03;1.02;;;;;;;31.56;21.51;99852.28;10378696;28;20052;-76
2022/08/13 15:31:59;;;;;;;3.33;1.25;;;;;;;31.54;21.51;99843.44;10372559;28;20692;-78
2022/08/13 15:37:00;;;;;;;8.85;8.15;;;;;;;31.48;21.90;99830.78;10418679;28;20060;-78
2022/08/13 15:42:06;;;;;;;2.60;2.40;;;;;;;31.41;21.49;99825.56;10386555;28;20499;-78
2022/08/13 15:47:12;;;;;;;5.38;3.38;;;;;;;31.38;21.58;99815.91;10396326;28;20875;-80
2022/08/13 15:52:19;;;;;;;0.85;0.80;;;;;;;31.42;22.23;99821.69;10378445;28;20132;-77
2022/08/13 15:57:23;;;;;;;3.92;1.45;;;;;;;31.39;21.65;99813.97;10375233;28;20055;-80
2022/08/13 16:02:30;;;;;;;2.33;0.93;;;;;;;31.41;21.29;99809.06;10387225;28;20057;-79
2022/08/13 16:07:53;;;;;;;1.17;1.10;;;;;;;31.37;21.39;99805.19;10389470;28;20809;-77
2022/08/13 16:13:01;;;;;;;2.60;1.65;;;;;;;31.33;21.16;99799.44;10390253;28;20082;-78
2022/08/13 16:18:06;;;;;;;2.13;1.70;;;;;;;31.29;21.50;99784.56;10399700;28;20040;-79
2022/08/13 16:23:12;;;;;;;2.42;2.25;;;;;;;31.21;21.34;99782.34;10386431;28;20102;-78
2022/08/13 16:28:16;;;;;;;2.97;1.90;;;;;;;31.18;21.58;99783.72;10378546;28;20056;-76
2022/08/13 16:33:19;;;;;;;2.78;2.50;;;;;;;31.15;21.78;99780.69;10397966;28;20421;-74
2022/08/13 16:38:21;;;;;;;1.43;0.83;;;;;;;31.01;21.22;99772.94;10393012;28;20396;-78
2022/08/13 16:43:25;;;;;;;17.65;16.05;;;;;;;30.93;22.24;99770.72;10409899;28;20289;-79
2022/08/13 16:48:49;;;;;;;6.65;6.15;;;;;;;30.82;22.04;99750.63;10390250;28;20049;-80
2022/08/13 16:53:54;;;;;;;2.33;1.75;;;;;;;30.84;22.37;99750.38;10399566;28;20041;-77
2022/08/13 16:59:16;;;;;;;6.87;4.97;;;;;;;30.80;22.31;99752.81;10396596;28;20084;-78
2022/08/13 17:09:58;;;;;;;25.63;11.98;;;;;;;30.64;22.57;99729.97;10397012;28;20059;-77
2022/08/13 17:15:02;;;;;;;10.38;8.27;;;;;;;30.57;22.97;99734.06;10379814;28;20049;-79
2022/08/13 17:20:04;;;;;;;4.00;3.65;;;;;;;30.53;23.09;99731.03;10397919;28;20053;-78
2022/08/13 17:25:06;;;;;;;6.95;6.22;;;;;;;30.50;23.28;99731.56;10379938;28;20063;-79
2022/08/13 17:30:09;;;;;;;2.63;2.42;;;;;;;30.43;23.17;99733.72;10390446;28;20080;-80
2022/08/13 17:35:12;;;;;;;4.35;2.33;;;;;;;30.31;23.33;99715.53;10390676;28;20136;-76
2022/08/13 17:40:17;;;;;;;4.20;3.90;;;;;;;30.19;23.75;99706.72;10423290;28;20049;-77
2022/08/13 17:45:20;;;;;;;4.45;1.92;;;;;;;30.19;23.81;99725.06;10418006;28;20052;-78
2022/08/13 17:50:32;;;;;;;2.45;2.25;;;;;;;30.10;23.99;99716.50;10425205;28;20063;-79
2022/08/13 17:55:44;;;;;;;4.15;3.13;;;;;;;29.95;24.15;99715.34;10401271;28;20065;-76
2022/08/13 18:00:58;;;;;;;3.38;1.65;;;;;;;29.84;24.04;99713.63;10397054;28;20064;-75
2022/08/13 18:06:02;;;;;;;3.95;1.90;;;;;;;29.78;24.47;99722.88;10393635;28;20190;-78
2022/08/13 18:11:23;;;;;;;2.05;1.95;;;;;;;29.66;24.36;99720.31;10374803;28;20056;-76
2022/08/13 18:16:26;;;;;;;12.43;11.43;;;;;;;29.59;24.83;99720.56;10391259;28;20135;-78
2022/08/13 18:21:47;;;;;;;6.80;6.20;;;;;;;29.47;25.04;99728.16;10388833;28;20049;-77
2022/08/13 18:26:51;;;;;;;8.43;6.65;;;;;;;29.40;25.28;99722.06;10372622;28;20057;-77
2022/08/13 18:31:58;;;;;;;7.80;7.03;;;;;;;29.29;25.47;99728.53;10381094;28;20049;-77
2022/08/13 18:37:00;;;;;;;15.30;14.10;;;;;;;29.17;26.39;99728.66;10373413;28;20063;-78
2022/08/13 18:42:01;;;;;;;17.10;15.50;;;;;;;29.03;26.43;99734.53;10369621;28;20287;-76
2022/08/13 18:47:09;;;;;;;11.57;10.48;;;;;;;28.88;26.89;99737.94;10386471;28;20060;-77
2022/08/13 18:52:11;;;;;;;8.02;6.72;;;;;;;28.80;27.26;99746.63;10360094;28;20060;-77
2022/08/13 18:57:33;;;;;;;8.32;7.55;;;;;;;28.71;27.53;99742.72;10364229;28;21645;-77
2022/08/13 19:02:38;;;;;;;13.02;11.32;;;;;;;28.54;28.01;99732.63;10389051;28;20050;-79
2022/08/13 19:07:40;;;;;;;28.88;26.20;;;;;;;28.50;28.63;99756.09;10392396;28;20163;-74
2022/08/13 19:12:46;;;;;;;9.65;8.70;;;;;;;28.36;28.61;99758.41;10387469;28;20053;-74
2022/08/13 19:17:52;;;;;;;12.40;9.27;;;;;;;28.20;28.97;99754.63;10388439;28;20049;-76
2022/08/13 19:22:59;;;;;;;14.88;13.52;;;;;;;28.15;29.21;99768.25;10372338;28;20060;-73
2022/08/13 19:28:01;;;;;;;17.05;15.70;;;;;;;28.02;29.42;99768.59;10398235;28;20687;-76
2022/08/13 19:33:06;;;;;;;15.55;14.05;;;;;;;27.96;30.11;99781.34;10383541;28;20059;-76
2022/08/13 19:38:12;;;;;;;11.80;9.75;;;;;;;27.88;30.85;99779.03;10387509;28;20582;-76
2022/08/13 19:43:14;;;;;;;6.38;5.78;;;;;;;27.81;31.25;99781.09;10389699;28;20052;-73
2022/08/13 19:48:16;;;;;;;8.90;5.80;;;;;;;27.68;31.38;99794.03;10390178;28;20456;-73
2022/08/13 19:53:38;;;;;;;6.32;5.72;;;;;;;27.57;31.76;99794.91;10396892;28;20562;-73
2022/08/13 19:58:40;;;;;;;7.93;4.78;;;;;;;27.50;31.82;99800.53;10404511;28;20206;-75
2022/08/13 20:03:47;;;;;;;9.40;8.55;;;;;;;27.38;31.75;99802.50;10384719;28;20112;-77
2022/08/13 20:08:56;;;;;;;3.47;3.17;;;;;;;27.33;32.30;99805.97;10398218;28;20053;-74
2022/08/13 20:14:00;;;;;;;2.90;2.70;;;;;;;27.18;32.14;99813.84;10398404;28;20061;-76
2022/08/13 20:19:04;;;;;;;5.22;2.78;;;;;;;27.12;33.52;99814.81;10399209;28;20389;-73
2022/08/13 20:24:15;;;;;;;5.35;4.70;;;;;;;27.08;33.46;99813.66;10381966;28;20827;-76
2022/08/13 20:29:37;;;;;;;13.55;12.25;;;;;;;27.04;33.36;99813.31;10397867;28;20052;-75
2022/08/13 20:34:38;;;;;;;95.10;86.80;;;;;;;27.03;33.83;99816.28;10384058;28;20046;-75
2022/08/13 20:39:40;;;;;;;34.17;30.98;;;;;;;26.95;34.08;99815.59;10397369;28;20056;-76
2022/08/13 20:44:57;;;;;;;14.60;13.23;;;;;;;26.87;34.10;99826.88;10395693;28;20056;-76
2022/08/13 20:50:00;;;;;;;14.02;10.27;;;;;;;26.81;34.26;99822.41;10395372;28;20053;-76
2022/08/13 20:55:06;;;;;;;8.30;7.60;;;;;;;26.75;34.77;99837.00;10391922;28;20079;-76
2022/08/13 21:00:17;;;;;;;3.88;3.00;;;;;;;26.58;34.68;99832.25;10391694;28;20049;-73
2022/08/13 21:05:38;;;;;;;3.15;2.90;;;;;;;26.52;34.94;99838.69;10392495;28;20568;-76
2022/08/13 21:10:42;;;;;;;3.70;3.40;;;;;;;26.40;35.15;99848.78;10387209;28;20124;-75
2022/08/13 21:15:45;;;;;;;3.92;3.63;;;;;;;26.37;35.09;99839.16;10393785;28;20914;-74
2022/08/13 21:21:07;;;;;;;7.00;4.28;;;;;;;26.23;35.39;99841.31;10393073;28;20542;-75
2022/08/13 21:26:08;;;;;;;4.72;4.32;;;;;;;26.23;35.81;99843.22;10384531;28;20057;-75
2022/08/13 21:31:11;;;;;;;;;;;;;;;26.18;36.74;99843.94;10377808;28;20544;-75
2022/08/13 21:36:32;;;;;;;8.68;7.90;;;;;;;26.12;36.71;99831.22;10397657;28;19928;-76
2022/08/13 21:41:34;;;;;;;9.23;6.15;;;;;;;26.10;37.06;99834.16;10374736;28;20107;-76
2022/08/13 21:46:36;;;;;;;7.70;7.00;;;;;;;25.98;36.87;99833.31;10385089;28;20049;-76
2022/08/13 21:51:41;;;;;;;7.40;6.30;;;;;;;25.96;37.56;99846.34;10381038;28;21761;-75
2022/08/13 21:56:43;;;;;;;8.90;8.13;;;;;;;25.91;37.76;99848.94;10396828;28;20069;-76
2022/08/13 22:01:44;;;;;;;6.57;5.97;;;;;;;25.87;38.00;99851.31;10387624;28;20902;-75
2022/08/13 22:06:48;;;;;;;6.57;6.00;;;;;;;25.86;38.60;99857.00;10365329;28;20076;-76
2022/08/13 22:11:50;;;;;;;5.15;4.18;;;;;;;25.74;31.98;99846.88;10383162;28;20053;-75
2022/08/13 22:16:52;;;;;;;5.85;4.40;;;;;;;25.59;38.56;99851.94;10376170;28;20828;-74
2022/08/13 22:21:54;;;;;;;6.40;4.47;;;;;;;25.53;38.83;99853.69;10397154;28;20064;-74
2022/08/13 22:26:56;;;;;;;5.10;4.80;;;;;;;25.50;39.37;99858.78;10395065;28;20453;-74
2022/08/13 22:31:58;;;;;;;4.72;4.28;;;;;;;25.48;39.24;99869.94;10387801;28;20111;-74
2022/08/13 22:36:59;;;;;;;4.87;4.40;;;;;;;25.44;39.71;99865.19;10370957;28;20127;-74
2022/08/13 22:42:03;;;;;;;9.23;4.75;;;;;;;25.38;39.93;99862.28;10394874;28;20049;-74
2022/08/13 22:47:19;;;;;;;6.05;4.85;;;;;;;25.28;40.64;99861.16;10398810;28;20053;-74
2022/08/13 22:52:20;;;;;;;6.88;4.22;;;;;;;25.28;40.83;99866.59;10394613;28;20064;-74
2022/08/13 22:57:22;;;;;;;4.53;3.95;;;;;;;25.21;41.82;99867.53;10372485;28;20045;-73
2022/08/13 23:02:24;;;;;;;8.68;4.60;;;;;;;25.20;41.75;99865.03;10390483;28;20700;-75
2022/08/13 23:07:26;;;;;;;4.18;3.67;;;;;;;25.16;42.30;99861.09;10381822;28;20051;-75
2022/08/13 23:12:27;;;;;;;4.90;4.00;;;;;;;25.12;42.48;99868.09;10349717;28;20111;-73
2022/08/13 23:17:36;;;;;;;5.55;4.45;;;;;;;25.06;42.29;99872.53;10365557;28;20595;-75
2022/08/13 23:22:45;;;;;;;5.25;4.80;;;;;;;25.00;42.90;99860.66;10379813;28;20052;-75
2022/08/13 23:27:46;;;;;;;4.40;4.00;;;;;;;24.94;43.26;99856.13;10369196;28;20044;-75
2022/08/13 23:32:59;;;;;;;5.20;4.75;;;;;;;24.90;43.19;99860.38;10366111;28;20045;-72
2022/08/13 23:38:01;;;;;;;5.70;4.87;;;;;;;24.87;43.72;99855.38;10386591;28;20063;-75
2022/08/13 23:43:11;;;;;;;4.88;4.47;;;;;;;24.79;43.81;99847.53;10391166;28;20649;-74
2022/08/13 23:48:15;;;;;;;6.70;4.25;;;;;;;24.78;43.67;99843.97;10389839;28;20045;-72
2022/08/13 23:53:28;;;;;;;4.93;3.97;;;;;;;24.77;43.59;99836.88;10373328;28;20057;-72
2022/08/13 23:58:33;;;;;;;4.88;4.40;;;;;;;24.74;43.67;99825.59;10388428;28;20056;-74
